Time;durP1;ratioP1;P1;durP2;ratioP2;P2;SDS_P1;SDS_P2;PMS_P1;PMS_P2;Temp;Humidity;BMP_temperature;BMP_pressure;BME280_temperature;BME280_humidity;BME280_pressure;Samples;Min_cycle;Max_cycle;Signal;HPM_P1;HPM_P2
2023/05/09 00:01:30;;;;;;;18.30;11.15;;;;;;;;;;6317246;22;20189;-92
2023/05/09 00:04:37;;;;;;;20.73;11.00;;;;;;;;;;6319396;22;20169;-94
2023/05/09 00:07:42;;;;;;;19.73;11.13;;;;;;;;;;6299690;22;20165;-92
2023/05/09 00:10:46;;;;;;;22.63;11.23;;;;;;;;;;6301212;22;20152;-92
2023/05/09 00:13:52;;;;;;;17.40;10.55;;;;;;;;;;6318683;22;20678;-91
2023/05/09 00:17:02;;;;;;;22.60;12.30;;;;;;;;;;6317157;22;20165;-92
2023/05/09 00:20:11;;;;;;;20.80;10.68;;;;;;;;;;6318560;22;20201;-93
2023/05/09 00:23:15;;;;;;;20.98;10.90;;;;;;;;;;6316567;22;20518;-93
2023/05/09 00:26:21;;;;;;;16.05;9.68;;;;;;;;;;6318736;22;20395;-92
2023/05/09 00:29:27;;;;;;;23.85;10.98;;;;;;;;;;6316995;22;20451;-90
2023/05/09 00:32:33;;;;;;;16.23;9.85;;;;;;;;;;6318614;22;20642;-92
2023/05/09 00:35:39;;;;;;;16.55;9.65;;;;;;;;;;6301066;22;20161;-93
2023/05/09 00:38:47;;;;;;;17.48;9.40;;;;;;;;;;6317214;22;20731;-92
2023/05/09 00:41:52;;;;;;;19.05;9.40;;;;;;;;;;6318064;22;20274;-92
2023/05/09 00:45:04;;;;;;;17.40;9.18;;;;;;;;;;6317044;22;20295;-93
2023/05/09 00:48:09;;;;;;;16.33;9.38;;;;;;;;;;6299152;22;20164;-92
2023/05/09 00:51:15;;;;;;;17.38;10.23;;;;;;;;;;6317952;22;20500;-93
2023/05/09 00:54:20;;;;;;;17.80;8.82;;;;;;;;;;6299394;22;20165;-92
2023/05/09 00:57:26;;;;;;;17.85;9.27;;;;;;;;;;6316837;22;20153;-91
2023/05/09 01:00:31;;;;;;;17.42;9.02;;;;;;;;;;6318532;22;20232;-92
2023/05/09 01:03:36;;;;;;;36.72;10.15;;;;;;;;;;6317960;22;20168;-91
2023/05/09 01:06:47;;;;;;;19.85;8.50;;;;;;;;;;6318492;22;20216;-91
2023/05/09 01:09:57;;;;;;;13.55;8.25;;;;;;;;;;6317444;22;20165;-92
2023/05/09 01:13:05;;;;;;;13.98;8.45;;;;;;;;;;6318269;22;20173;-94
2023/05/09 01:16:29;;;;;;;13.00;7.80;;;;;;;;;;6317913;22;20169;-93
2023/05/09 01:19:46;;;;;;;15.55;7.25;;;;;;;;;;6299452;22;20166;-91
2023/05/09 01:22:56;;;;;;;11.48;7.13;;;;;;;;;;6319764;22;20197;-92
2023/05/09 01:26:04;;;;;;;12.88;6.45;;;;;;;;;;6318743;22;20219;-93
2023/05/09 01:29:26;;;;;;;12.30;6.38;;;;;;;;;;6319321;22;20184;-92
2023/05/09 01:32:32;;;;;;;13.27;6.32;;;;;;;;;;6319218;22;20629;-93
2023/05/09 01:35:39;;;;;;;13.15;6.78;;;;;;;;;;6301192;22;20231;-91
2023/05/09 01:38:45;;;;;;;13.95;7.53;;;;;;;;;;6300189;22;20231;-91
2023/05/09 01:41:51;;;;;;;10.88;6.35;;;;;;;;;;6318446;22;20242;-92
2023/05/09 01:44:59;;;;;;;13.15;7.22;;;;;;;;;;6299500;22;20165;-93
2023/05/09 01:48:05;;;;;;;10.75;6.00;;;;;;;;;;6315871;22;20162;-91
2023/05/09 01:51:11;;;;;;;12.45;6.97;;;;;;;;;;6318083;22;20161;-93
2023/05/09 01:54:18;;;;;;;11.18;6.05;;;;;;;;;;6317413;22;20239;-92
2023/05/09 01:57:23;;;;;;;10.35;6.18;;;;;;;;;;6298708;22;20165;-92
2023/05/09 02:00:31;;;;;;;13.45;6.88;;;;;;;;;;6317401;22;20157;-91
2023/05/09 02:03:40;;;;;;;13.63;6.63;;;;;;;;;;6317660;22;20555;-94
2023/05/09 02:06:45;;;;;;;13.23;6.55;;;;;;;;;;6318475;22;20204;-92
2023/05/09 02:09:52;;;;;;;11.35;6.05;;;;;;;;;;6319476;22;20247;-92
2023/05/09 02:12:58;;;;;;;13.23;7.10;;;;;;;;;;6320248;22;20177;-92
2023/05/09 02:16:05;;;;;;;10.25;6.97;;;;;;;;;;6320219;22;20169;-91
2023/05/09 02:19:10;;;;;;;12.45;6.28;;;;;;;;;;6320466;22;20256;-92
2023/05/09 02:22:15;;;;;;;11.60;6.20;;;;;;;;;;6318994;22;20193;-91
2023/05/09 02:25:20;;;;;;;10.60;6.30;;;;;;;;;;6319543;22;20180;-94
2023/05/09 02:28:26;;;;;;;10.88;6.13;;;;;;;;;;6319937;22;20509;-93
2023/05/09 02:31:34;;;;;;;12.05;5.47;;;;;;;;;;6319599;22;20173;-92
2023/05/09 02:34:39;;;;;;;8.90;5.22;;;;;;;;;;6319999;22;20173;-91
2023/05/09 02:37:45;;;;;;;13.45;5.32;;;;;;;;;;6319785;22;20162;-91
2023/05/09 02:40:51;;;;;;;10.30;5.38;;;;;;;;;;6319860;22;20168;-92
2023/05/09 02:43:58;;;;;;;8.85;5.30;;;;;;;;;;6318645;22;20184;-91
2023/05/09 02:47:06;;;;;;;12.23;5.80;;;;;;;;;;6317853;22;20181;-91
2023/05/09 02:50:11;;;;;;;11.48;6.22;;;;;;;;;;6319713;22;20612;-93
2023/05/09 02:53:17;;;;;;;9.43;5.70;;;;;;;;;;6320258;22;20180;-92
2023/05/09 02:56:23;;;;;;;11.95;6.25;;;;;;;;;;6319722;22;20212;-90
2023/05/09 02:59:29;;;;;;;12.18;5.75;;;;;;;;;;6318418;22;20169;-91
2023/05/09 03:02:37;;;;;;;10.55;5.85;;;;;;;;;;6319258;22;20238;-90
2023/05/09 03:05:44;;;;;;;12.82;5.95;;;;;;;;;;6319057;22;20170;-91
2023/05/09 03:08:49;;;;;;;28.35;6.75;;;;;;;;;;6319198;22;20172;-92
2023/05/09 03:11:56;;;;;;;18.63;6.47;;;;;;;;;;6319332;22;20169;-91
2023/05/09 03:15:01;;;;;;;17.73;7.10;;;;;;;;;;6319029;22;20216;-92
2023/05/09 03:18:51;;;;;;;21.13;7.00;;;;;;;;;;6318662;22;20149;-91
2023/05/09 03:21:58;;;;;;;12.43;6.32;;;;;;;;;;6320554;22;20162;-93
2023/05/09 03:25:05;;;;;;;14.00;6.15;;;;;;;;;;6320352;22;20165;-92
2023/05/09 03:28:10;;;;;;;15.20;6.30;;;;;;;;;;6319349;22;20164;-92
2023/05/09 03:31:16;;;;;;;11.60;6.60;;;;;;;;;;6301920;22;20164;-90
2023/05/09 03:34:21;;;;;;;16.13;6.47;;;;;;;;;;6320188;22;20157;-92
2023/05/09 03:37:27;;;;;;;13.35;6.35;;;;;;;;;;6319996;22;20169;-91
2023/05/09 03:40:33;;;;;;;13.80;6.57;;;;;;;;;;6320152;22;20252;-93
2023/05/09 03:43:44;;;;;;;15.73;7.00;;;;;;;;;;6300145;22;20542;-90
2023/05/09 03:46:51;;;;;;;12.77;6.55;;;;;;;;;;6317467;22;20223;-90
2023/05/09 03:49:56;;;;;;;12.63;6.45;;;;;;;;;;6319526;22;20149;-92
2023/05/09 03:53:06;;;;;;;11.77;5.88;;;;;;;;;;6318539;22;20193;-93
2023/05/09 03:56:12;;;;;;;18.98;6.80;;;;;;;;;;6319953;22;20239;-92
2023/05/09 03:59:24;;;;;;;13.52;6.18;;;;;;;;;;6302866;22;20610;-90
2023/05/09 04:02:29;;;;;;;18.23;6.93;;;;;;;;;;6317571;22;20165;-92
2023/05/09 04:05:35;;;;;;;12.43;6.63;;;;;;;;;;6321456;22;20216;-91
2023/05/09 04:08:44;;;;;;;12.38;6.43;;;;;;;;;;6319312;22;20181;-91
2023/05/09 04:11:50;;;;;;;12.93;6.55;;;;;;;;;;6300078;22;20208;-91
2023/05/09 04:14:55;;;;;;;14.93;6.82;;;;;;;;;;6316712;22;20567;-90
2023/05/09 04:18:05;;;;;;;11.85;6.80;;;;;;;;;;6316022;22;20177;-93
2023/05/09 04:21:11;;;;;;;16.45;6.53;;;;;;;;;;6318971;22;20156;-90
2023/05/09 04:24:19;;;;;;;14.73;6.30;;;;;;;;;;6302311;22;20169;-93
2023/05/09 04:27:26;;;;;;;11.05;5.45;;;;;;;;;;6320515;22;20657;-93
2023/05/09 04:30:32;;;;;;;13.23;5.47;;;;;;;;;;6316924;22;20161;-92
2023/05/09 04:33:38;;;;;;;13.57;7.07;;;;;;;;;;6317806;22;20181;-92
2023/05/09 04:36:43;;;;;;;18.08;5.78;;;;;;;;;;6318460;22;20173;-90
2023/05/09 04:39:49;;;;;;;12.07;5.15;;;;;;;;;;6317886;22;20219;-91
2023/05/09 04:43:02;;;;;;;9.85;5.50;;;;;;;;;;6319703;22;20505;-91
2023/05/09 04:46:12;;;;;;;8.25;4.82;;;;;;;;;;6323884;22;20219;-91
2023/05/09 04:49:19;;;;;;;9.63;5.18;;;;;;;;;;6320673;22;20169;-91
2023/05/09 04:52:24;;;;;;;12.52;5.70;;;;;;;;;;6321200;22;20212;-91
2023/05/09 04:55:32;;;;;;;18.27;5.50;;;;;;;;;;6321302;22;20224;-89
2023/05/09 04:58:39;;;;;;;15.18;5.95;;;;;;;;;;6324153;22;20165;-93
2023/05/09 05:01:48;;;;;;;12.38;5.80;;;;;;;;;;6322259;22;20188;-90
2023/05/09 05:04:53;;;;;;;16.27;6.45;;;;;;;;;;6326324;22;20184;-91
2023/05/09 05:08:04;;;;;;;10.27;5.72;;;;;;;;;;6324867;22;20720;-93
2023/05/09 05:11:16;;;;;;;10.13;5.20;;;;;;;;;;6322936;22;20220;-92
2023/05/09 05:14:22;;;;;;;10.38;5.57;;;;;;;;;;6323547;22;20193;-92
2023/05/09 05:17:28;;;;;;;12.55;6.15;;;;;;;;;;6323970;22;20635;-92
2023/05/09 05:20:36;;;;;;;10.13;5.40;;;;;;;;;;6324749;22;20292;-89
2023/05/09 05:23:45;;;;;;;12.30;6.28;;;;;;;;;;6325492;22;20172;-91
2023/05/09 05:26:52;;;;;;;10.93;5.43;;;;;;;;;;6306626;22;20169;-91
2023/05/09 05:29:58;;;;;;;10.55;5.55;;;;;;;;;;6308202;22;20220;-92
2023/05/09 05:33:04;;;;;;;16.48;6.45;;;;;;;;;;6310903;22;20189;-90
2023/05/09 05:39:31;;;;;;;11.82;5.05;;;;;;;;;;6325838;22;20173;-90
2023/05/09 05:42:43;;;;;;;12.45;5.40;;;;;;;;;;6326685;22;20199;-93
2023/05/09 05:46:22;;;;;;;11.30;5.55;;;;;;;;;;6324855;22;20246;-93
2023/05/09 05:49:29;;;;;;;12.07;4.68;;;;;;;;;;6325326;22;20173;-90
2023/05/09 05:52:38;;;;;;;17.40;5.00;;;;;;;;;;6305946;22;20668;-91
2023/05/09 05:55:45;;;;;;;8.73;4.68;;;;;;;;;;6321567;22;20165;-88
2023/05/09 05:59:02;;;;;;;13.65;4.72;;;;;;;;;;6325314;22;20169;-91
2023/05/09 06:02:07;;;;;;;8.02;4.35;;;;;;;;;;6324645;22;20165;-90
2023/05/09 06:05:13;;;;;;;10.52;4.07;;;;;;;;;;6323425;22;20177;-90
2023/05/09 06:08:19;;;;;;;8.57;4.40;;;;;;;;;;6306938;22;20251;-91
2023/05/09 06:11:25;;;;;;;7.72;3.60;;;;;;;;;;6323154;22;20165;-89
2023/05/09 06:14:41;;;;;;;6.38;3.60;;;;;;;;;;6304470;22;20197;-89
2023/05/09 06:17:54;;;;;;;19.77;8.35;;;;;;;;;;6320996;22;20208;-90
2023/05/09 06:21:02;;;;;;;11.18;4.00;;;;;;;;;;6302547;22;20165;-92
2023/05/09 06:24:07;;;;;;;9.15;3.40;;;;;;;;;;6321047;22;20164;-95
2023/05/09 06:27:13;;;;;;;11.15;3.78;;;;;;;;;;6318294;22;20292;-91
2023/05/09 06:30:20;;;;;;;7.32;4.15;;;;;;;;;;6320618;22;20165;-93
2023/05/09 06:33:26;;;;;;;6.72;4.05;;;;;;;;;;6324535;22;20247;-91
2023/05/09 06:36:35;;;;;;;7.82;3.80;;;;;;;;;;6308894;22;20237;-92
2023/05/09 06:39:43;;;;;;;8.23;3.60;;;;;;;;;;6306172;22;20219;-91
2023/05/09 06:42:48;;;;;;;8.10;3.72;;;;;;;;;;6320992;22;20169;-90
2023/05/09 06:45:56;;;;;;;6.35;3.40;;;;;;;;;;6321920;22;20184;-91
2023/05/09 06:49:01;;;;;;;5.95;3.17;;;;;;;;;;6324188;22;20212;-92
2023/05/09 06:52:07;;;;;;;8.35;4.28;;;;;;;;;;6332249;22;20226;-91
2023/05/09 06:55:12;;;;;;;10.40;4.50;;;;;;;;;;6333967;22;20164;-92
2023/05/09 06:58:17;;;;;;;8.68;3.80;;;;;;;;;;6330237;22;20627;-92
2023/05/09 07:01:24;;;;;;;11.93;3.83;;;;;;;;;;6331865;22;20157;-92
2023/05/09 07:07:48;;;;;;;15.23;4.18;;;;;;;;;;6335671;22;20607;-90
2023/05/09 07:10:54;;;;;;;13.43;3.80;;;;;;;;;;6331097;22;20164;-91
2023/05/09 07:13:59;;;;;;;8.60;3.90;;;;;;;;;;6330710;22;20239;-91
2023/05/09 07:20:45;;;;;;;9.65;3.97;;;;;;;;;;6333563;22;20208;-90
2023/05/09 07:23:55;;;;;;;11.18;3.70;;;;;;;;;;6331449;22;20278;-91
2023/05/09 07:27:03;;;;;;;17.10;4.55;;;;;;;;;;6335357;22;20164;-90
2023/05/09 07:30:12;;;;;;;9.45;3.83;;;;;;;;;;6335917;22;20175;-91
2023/05/09 07:33:19;;;;;;;8.80;3.85;;;;;;;;;;6333619;22;20235;-93
2023/05/09 07:36:25;;;;;;;10.88;4.15;;;;;;;;;;6337857;22;20164;-91
2023/05/09 07:43:29;;;;;;;16.73;4.30;;;;;;;;;;6354943;22;20163;-92
2023/05/09 07:46:36;;;;;;;20.67;11.43;;;;;;;;;;6332550;22;20173;-90
2023/05/09 07:49:42;;;;;;;12.60;4.32;;;;;;;;;;6335234;22;20232;-92
2023/05/09 07:52:50;;;;;;;12.90;4.20;;;;;;;;;;6336136;22;20169;-94
2023/05/09 07:55:57;;;;;;;11.90;4.93;;;;;;;;;;6337569;22;20216;-93
2023/05/09 07:59:07;;;;;;;8.70;3.90;;;;;;;;;;6340817;22;20164;-94
2023/05/09 08:02:50;;;;;;;5.18;3.75;;;;;;;;;;6337155;22;20168;-92
2023/05/09 08:05:56;;;;;;;8.00;4.13;;;;;;;;;;6339387;22;20169;-93
2023/05/09 08:09:20;;;;;;;25.38;4.22;;;;;;;;;;6335279;22;20159;-92
2023/05/09 08:12:33;;;;;;;12.68;5.75;;;;;;;;;;6338471;22;20169;-90
2023/05/09 08:15:39;;;;;;;7.88;3.90;;;;;;;;;;6335713;22;20160;-92
2023/05/09 08:18:49;;;;;;;7.53;4.00;;;;;;;;;;6336212;22;20152;-91
2023/05/09 08:22:00;;;;;;;13.57;4.25;;;;;;;;;;6336497;22;20172;-91
2023/05/09 08:25:08;;;;;;;5.80;3.45;;;;;;;;;;6336815;22;20264;-92
2023/05/09 08:28:15;;;;;;;6.72;3.75;;;;;;;;;;6334243;22;20307;-90
2023/05/09 08:31:21;;;;;;;7.90;3.80;;;;;;;;;;6333667;22;20221;-91
2023/05/09 08:34:33;;;;;;;7.20;3.72;;;;;;;;;;6337076;22;20203;-93
2023/05/09 08:37:41;;;;;;;9.65;4.30;;;;;;;;;;6334197;22;20156;-91
2023/05/09 08:40:46;;;;;;;7.45;3.17;;;;;;;;;;6340021;22;20164;-91
2023/05/09 08:44:13;;;;;;;9.70;5.20;;;;;;;;;;6338270;22;20192;-92
2023/05/09 08:47:21;;;;;;;7.32;3.90;;;;;;;;;;6336696;22;20180;-93
2023/05/09 08:50:26;;;;;;;6.60;3.10;;;;;;;;;;6336588;22;20184;-93
2023/05/09 08:53:32;;;;;;;9.75;3.63;;;;;;;;;;6336163;22;20163;-93
2023/05/09 08:56:42;;;;;;;9.48;3.70;;;;;;;;;;6335364;22;20199;-92
2023/05/09 08:59:50;;;;;;;9.95;3.03;;;;;;;;;;6334375;22;20168;-92
2023/05/09 09:02:59;;;;;;;8.73;3.55;;;;;;;;;;6335204;22;20222;-90
2023/05/09 09:06:05;;;;;;;10.57;4.55;;;;;;;;;;6337554;22;20195;-93
2023/05/09 09:09:11;;;;;;;7.53;3.70;;;;;;;;;;6333946;22;20168;-92
2023/05/09 09:12:18;;;;;;;8.43;3.95;;;;;;;;;;6336418;22;20160;-91
2023/05/09 09:15:27;;;;;;;7.60;3.03;;;;;;;;;;6336743;22;20252;-92
2023/05/09 09:18:34;;;;;;;4.18;2.85;;;;;;;;;;6336543;22;20171;-91
2023/05/09 09:21:41;;;;;;;7.85;2.80;;;;;;;;;;6335710;22;20168;-91
2023/05/09 09:24:46;;;;;;;6.68;3.60;;;;;;;;;;6336259;22;20195;-93
2023/05/09 09:27:51;;;;;;;4.63;3.17;;;;;;;;;;6337502;22;20164;-92
2023/05/09 09:31:00;;;;;;;6.50;3.33;;;;;;;;;;6337476;22;20210;-93
2023/05/09 09:34:05;;;;;;;5.40;3.03;;;;;;;;;;6338497;22;20164;-92
2023/05/09 09:37:22;;;;;;;7.95;2.83;;;;;;;;;;6335817;22;20167;-91
2023/05/09 09:40:27;;;;;;;13.63;3.58;;;;;;;;;;6338086;22;20253;-91
2023/05/09 09:43:36;;;;;;;8.85;3.13;;;;;;;;;;6339475;22;20164;-92
2023/05/09 09:46:47;;;;;;;12.05;3.50;;;;;;;;;;6337384;22;20171;-92
2023/05/09 09:49:52;;;;;;;8.05;3.70;;;;;;;;;;6337137;22;20187;-91
2023/05/09 09:52:59;;;;;;;7.95;3.60;;;;;;;;;;6337425;22;20182;-92
2023/05/09 09:56:05;;;;;;;3.63;2.90;;;;;;;;;;6334222;22;20167;-92
2023/05/09 10:02:34;;;;;;;8.18;3.00;;;;;;;;;;6336848;22;20192;-92
2023/05/09 10:09:03;;;;;;;6.20;3.03;;;;;;;;;;6339054;22;20511;-92
2023/05/09 10:12:09;;;;;;;7.60;3.20;;;;;;;;;;6340024;22;20172;-91
2023/05/09 10:15:19;;;;;;;7.75;3.60;;;;;;;;;;6338956;22;20159;-92
2023/05/09 10:18:31;;;;;;;5.47;3.10;;;;;;;;;;6338996;22;20247;-91
2023/05/09 10:25:00;;;;;;;3.90;2.90;;;;;;;;;;6338907;22;20191;-92
2023/05/09 10:28:07;;;;;;;9.65;3.22;;;;;;;;;;6337726;22;20160;-90
2023/05/09 10:31:16;;;;;;;6.25;3.10;;;;;;;;;;6338224;22;20164;-92
2023/05/09 10:34:26;;;;;;;5.57;2.92;;;;;;;;;;6336714;22;20171;-91
2023/05/09 10:40:56;;;;;;;11.98;4.00;;;;;;;;;;6339230;22;20164;-92
2023/05/09 10:44:03;;;;;;;18.77;4.15;;;;;;;;;;6339137;22;20144;-91
2023/05/09 10:47:13;;;;;;;9.95;2.75;;;;;;;;;;6338999;22;20167;-91
2023/05/09 10:50:21;;;;;;;7.65;2.85;;;;;;;;;;6338004;22;20226;-91
2023/05/09 10:53:41;;;;;;;3.95;2.65;;;;;;;;;;6337484;22;20171;-91
2023/05/09 10:56:47;;;;;;;5.68;2.67;;;;;;;;;;6336930;22;20163;-92
2023/05/09 10:59:59;;;;;;;5.53;3.08;;;;;;;;;;6359114;22;20164;-92
2023/05/09 11:03:08;;;;;;;13.90;3.53;;;;;;;;;;6340669;22;20182;-92
2023/05/09 11:06:35;;;;;;;7.68;2.60;;;;;;;;;;6338637;22;20249;-93
2023/05/09 11:09:41;;;;;;;5.30;3.03;;;;;;;;;;6338717;22;20172;-94
2023/05/09 11:12:54;;;;;;;5.55;2.80;;;;;;;;;;6338006;22;20258;-92
2023/05/09 11:16:06;;;;;;;9.00;3.17;;;;;;;;;;6338934;22;20159;-94
2023/05/09 11:19:11;;;;;;;12.00;4.95;;;;;;;;;;6337101;22;20163;-92
2023/05/09 11:22:23;;;;;;;15.02;2.63;;;;;;;;;;6338084;22;20187;-94
2023/05/09 11:25:30;;;;;;;6.68;2.65;;;;;;;;;;6336100;22;20191;-94
2023/05/09 11:28:49;;;;;;;12.00;2.85;;;;;;;;;;6336561;22;20205;-92
2023/05/09 11:32:08;;;;;;;5.43;2.70;;;;;;;;;;6337513;22;20168;-92
2023/05/09 11:35:14;;;;;;;5.07;2.90;;;;;;;;;;6337657;22;20168;-94
2023/05/09 11:38:24;;;;;;;8.75;2.83;;;;;;;;;;6339373;22;20218;-92
2023/05/09 11:41:30;;;;;;;8.15;2.70;;;;;;;;;;6337616;22;20529;-92
2023/05/09 11:44:36;;;;;;;8.45;2.72;;;;;;;;;;6339069;22;20187;-91
2023/05/09 11:48:15;;;;;;;3.83;2.38;;;;;;;;;;6339118;22;20232;-90
2023/05/09 11:51:21;;;;;;;3.63;2.50;;;;;;;;;;6340984;22;20194;-94
2023/05/09 11:57:49;;;;;;;6.53;2.67;;;;;;;;;;6355613;22;20184;-93
2023/05/09 12:00:59;;;;;;;7.75;2.70;;;;;;;;;;6338328;22;20156;-94
2023/05/09 12:07:32;;;;;;;6.85;2.70;;;;;;;;;;6337719;22;20171;-92
2023/05/09 12:10:45;;;;;;;4.75;2.25;;;;;;;;;;6338596;22;20168;-92
2023/05/09 12:13:57;;;;;;;44.22;4.93;;;;;;;;;;6337483;22;20613;-92
2023/05/09 12:17:04;;;;;;;5.57;1.70;;;;;;;;;;6337940;22;20591;-93
2023/05/09 12:20:09;;;;;;;8.98;2.75;;;;;;;;;;6339052;22;20168;-92
2023/05/09 12:23:22;;;;;;;9.55;3.20;;;;;;;;;;6336383;22;20619;-92
2023/05/09 12:26:29;;;;;;;3.83;2.40;;;;;;;;;;6335952;22;20326;-92
2023/05/09 12:29:39;;;;;;;7.20;2.80;;;;;;;;;;6336809;22;20498;-94
2023/05/09 12:32:47;;;;;;;4.07;2.88;;;;;;;;;;6336142;22;20332;-94
2023/05/09 12:36:03;;;;;;;9.05;3.00;;;;;;;;;;6338213;22;20167;-92
2023/05/09 12:39:10;;;;;;;6.80;4.60;;;;;;;;;;6335601;22;20286;-92
2023/05/09 12:42:17;;;;;;;4.50;2.50;;;;;;;;;;6337706;22;20159;-89
2023/05/09 12:45:22;;;;;;;12.13;3.03;;;;;;;;;;6337927;22;20195;-90
2023/05/09 12:48:29;;;;;;;9.82;3.05;;;;;;;;;;6336405;22;20163;-93
2023/05/09 12:51:34;;;;;;;8.07;2.80;;;;;;;;;;6337488;22;20666;-93
2023/05/09 12:54:39;;;;;;;13.15;3.88;;;;;;;;;;6337905;22;20187;-93
2023/05/09 12:57:57;;;;;;;8.43;3.00;;;;;;;;;;6335191;22;20159;-89
2023/05/09 13:01:04;;;;;;;5.97;2.80;;;;;;;;;;6336999;22;20270;-94
2023/05/09 13:04:10;;;;;;;8.18;2.75;;;;;;;;;;6337132;22;20235;-91
2023/05/09 13:07:15;;;;;;;6.68;3.05;;;;;;;;;;6339175;22;20167;-91
2023/05/09 13:10:25;;;;;;;9.00;3.33;;;;;;;;;;6338513;22;20214;-91
2023/05/09 13:13:34;;;;;;;5.57;2.85;;;;;;;;;;6338329;22;20180;-91
2023/05/09 13:16:40;;;;;;;11.65;2.67;;;;;;;;;;6338873;22;20172;-92
2023/05/09 13:19:46;;;;;;;6.15;2.58;;;;;;;;;;6339682;22;20164;-92
2023/05/09 13:22:51;;;;;;;7.00;2.40;;;;;;;;;;6341151;22;20184;-92
2023/05/09 13:25:57;;;;;;;4.00;2.25;;;;;;;;;;6338695;22;20609;-93
2023/05/09 13:29:04;;;;;;;4.30;2.65;;;;;;;;;;6339208;22;20168;-93
2023/05/09 13:32:11;;;;;;;8.63;2.80;;;;;;;;;;6339736;22;20221;-92
2023/05/09 13:35:17;;;;;;;4.90;2.25;;;;;;;;;;6337706;22;20212;-93
2023/05/09 13:38:24;;;;;;;5.35;2.45;;;;;;;;;;6338170;22;20186;-93
2023/05/09 13:41:34;;;;;;;4.03;2.33;;;;;;;;;;6340630;22;20338;-93
2023/05/09 13:44:42;;;;;;;4.43;2.60;;;;;;;;;;6337773;22;20166;-91
2023/05/09 13:51:08;;;;;;;6.63;2.42;;;;;;;;;;6344440;22;20623;-93
2023/05/09 13:54:17;;;;;;;6.35;2.20;;;;;;;;;;6359065;22;20171;-93
2023/05/09 13:57:22;;;;;;;7.70;2.50;;;;;;;;;;6340114;22;20171;-92
2023/05/09 14:00:33;;;;;;;6.05;2.40;;;;;;;;;;6339341;22;20167;-91
2023/05/09 14:03:47;;;;;;;10.07;2.90;;;;;;;;;;6340752;22;20234;-92
2023/05/09 14:06:53;;;;;;;4.38;2.65;;;;;;;;;;6338312;22;20196;-93
2023/05/09 14:10:07;;;;;;;8.23;2.22;;;;;;;;;;6337375;22;20198;-89
2023/05/09 14:13:16;;;;;;;41.95;4.70;;;;;;;;;;6340843;22;20204;-92
2023/05/09 14:16:23;;;;;;;2.58;1.92;;;;;;;;;;6340161;22;20215;-90
2023/05/09 14:19:30;;;;;;;3.30;1.90;;;;;;;;;;6340208;22;20213;-92
2023/05/09 14:22:38;;;;;;;4.93;2.30;;;;;;;;;;6338604;22;20164;-91
2023/05/09 14:25:44;;;;;;;3.10;1.80;;;;;;;;;;6338754;22;20187;-91
2023/05/09 14:28:49;;;;;;;10.98;2.30;;;;;;;;;;6337237;22;20164;-93
2023/05/09 14:31:57;;;;;;;7.97;2.03;;;;;;;;;;6338449;22;20167;-89
2023/05/09 14:35:03;;;;;;;5.13;1.80;;;;;;;;;;6320598;22;20172;-91
2023/05/09 14:38:13;;;;;;;2.90;1.80;;;;;;;;;;6337791;22;20190;-92
2023/05/09 14:41:18;;;;;;;9.77;2.20;;;;;;;;;;6339669;22;20152;-92
2023/05/09 14:44:28;;;;;;;3.35;1.70;;;;;;;;;;6340935;22;20160;-91
2023/05/09 14:47:46;;;;;;;4.63;1.90;;;;;;;;;;6339001;22;20217;-92
2023/05/09 14:50:57;;;;;;;6.97;2.00;;;;;;;;;;6337773;22;20195;-91
2023/05/09 14:54:03;;;;;;;8.10;2.15;;;;;;;;;;6337610;22;20168;-92
2023/05/09 14:57:08;;;;;;;7.30;2.35;;;;;;;;;;6341564;22;20205;-93
2023/05/09 15:00:16;;;;;;;3.45;2.17;;;;;;;;;;6338187;22;20168;-92
2023/05/09 15:03:23;;;;;;;8.15;2.10;;;;;;;;;;6338294;22;20168;-92
2023/05/09 15:06:29;;;;;;;2.65;1.70;;;;;;;;;;6338322;22;20218;-91
2023/05/09 15:09:36;;;;;;;2.72;1.70;;;;;;;;;;6338951;22;20145;-91
2023/05/09 15:12:42;;;;;;;4.32;1.85;;;;;;;;;;6339086;22;20173;-92
2023/05/09 15:15:47;;;;;;;5.05;2.03;;;;;;;;;;6338397;22;20187;-93
2023/05/09 15:18:58;;;;;;;7.47;2.20;;;;;;;;;;6338290;22;20180;-92
2023/05/09 15:22:07;;;;;;;3.90;2.05;;;;;;;;;;6335858;22;20168;-92
2023/05/09 15:25:13;;;;;;;6.28;2.33;;;;;;;;;;6336474;22;20191;-94
2023/05/09 15:28:20;;;;;;;5.50;1.77;;;;;;;;;;6355961;22;20214;-92
2023/05/09 15:31:25;;;;;;;4.70;2.00;;;;;;;;;;6340603;22;20168;-94
2023/05/09 15:34:34;;;;;;;5.55;1.80;;;;;;;;;;6338218;22;20169;-92
2023/05/09 15:37:41;;;;;;;5.93;2.30;;;;;;;;;;6338817;22;20184;-92
2023/05/09 15:40:47;;;;;;;3.53;2.00;;;;;;;;;;6338293;22;20161;-92
2023/05/09 15:43:56;;;;;;;4.07;2.03;;;;;;;;;;6342073;22;20242;-92
2023/05/09 15:47:05;;;;;;;4.78;2.00;;;;;;;;;;6353045;22;20192;-91
2023/05/09 15:50:15;;;;;;;5.20;2.63;;;;;;;;;;6337384;22;20187;-92
2023/05/09 15:53:22;;;;;;;3.67;2.40;;;;;;;;;;6338248;22;20217;-93
2023/05/09 15:56:35;;;;;;;3.90;1.92;;;;;;;;;;6338485;22;20194;-92
2023/05/09 15:59:40;;;;;;;3.55;2.10;;;;;;;;;;6337984;22;20176;-92
2023/05/09 16:06:07;;;;;;;5.78;2.15;;;;;;;;;;6337127;22;20192;-91
2023/05/09 16:09:14;;;;;;;6.18;2.00;;;;;;;;;;6338110;22;20211;-92
2023/05/09 16:12:23;;;;;;;7.35;2.70;;;;;;;;;;6338903;22;20171;-90
2023/05/09 16:15:28;;;;;;;5.97;2.22;;;;;;;;;;6338857;22;20252;-94
2023/05/09 16:18:49;;;;;;;3.35;2.10;;;;;;;;;;6338726;22;20168;-91
2023/05/09 16:21:56;;;;;;;6.00;2.50;;;;;;;;;;6338827;22;20175;-92
2023/05/09 16:25:05;;;;;;;3.53;1.98;;;;;;;;;;6337420;22;20164;-91
2023/05/09 16:28:11;;;;;;;4.47;2.22;;;;;;;;;;6320735;22;20165;-92
2023/05/09 16:31:17;;;;;;;5.65;1.90;;;;;;;;;;6336750;22;20603;-92
2023/05/09 16:37:44;;;;;;;9.68;2.70;;;;;;;;;;6340073;22;20181;-91
2023/05/09 16:40:50;;;;;;;4.25;2.47;;;;;;;;;;6335637;22;20164;-92
2023/05/09 16:43:59;;;;;;;3.78;2.00;;;;;;;;;;6338519;22;20161;-92
2023/05/09 16:47:10;;;;;;;3.13;2.00;;;;;;;;;;6338142;22;20689;-90
2023/05/09 16:50:15;;;;;;;2.53;1.67;;;;;;;;;;6337053;22;20179;-93
2023/05/09 16:53:28;;;;;;;6.43;2.03;;;;;;;;;;6339641;22;20157;-94
2023/05/09 16:56:35;;;;;;;5.93;2.40;;;;;;;;;;6338506;22;20169;-92
2023/05/09 16:59:41;;;;;;;3.50;2.17;;;;;;;;;;6339434;22;20152;-94
2023/05/09 17:03:21;;;;;;;4.60;2.17;;;;;;;;;;6343109;22;20214;-91
2023/05/09 17:06:27;;;;;;;6.05;2.40;;;;;;;;;;6335554;22;20176;-90
2023/05/09 17:09:34;;;;;;;3.92;2.17;;;;;;;;;;6337099;22;20172;-91
2023/05/09 17:12:40;;;;;;;7.13;2.28;;;;;;;;;;6338143;22;20143;-92
2023/05/09 17:19:37;;;;;;;3.83;2.10;;;;;;;;;;6339492;22;20168;-92
2023/05/09 17:22:42;;;;;;;5.75;2.38;;;;;;;;;;6337204;22;20192;-93
2023/05/09 17:25:50;;;;;;;3.53;2.33;;;;;;;;;;6339093;22;20211;-93
2023/05/09 17:28:58;;;;;;;8.15;2.65;;;;;;;;;;6339580;22;20172;-91
2023/05/09 17:32:04;;;;;;;6.95;2.40;;;;;;;;;;6340876;22;20161;-92
2023/05/09 17:35:11;;;;;;;5.75;2.35;;;;;;;;;;6338149;22;20163;-90
2023/05/09 17:38:16;;;;;;;7.50;2.25;;;;;;;;;;6341206;22;20168;-92
2023/05/09 17:41:27;;;;;;;3.75;2.42;;;;;;;;;;6338438;22;20191;-92
2023/05/09 17:44:32;;;;;;;5.72;2.50;;;;;;;;;;6338161;22;20233;-94
2023/05/09 17:47:42;;;;;;;4.50;2.33;;;;;;;;;;6335410;22;20188;-91
2023/05/09 17:50:52;;;;;;;4.22;2.60;;;;;;;;;;6336066;22;20207;-91
2023/05/09 17:54:04;;;;;;;4.03;2.22;;;;;;;;;;6338333;22;20238;-90
2023/05/09 17:57:14;;;;;;;3.60;2.15;;;;;;;;;;6336017;22;20696;-90
2023/05/09 18:00:20;;;;;;;6.90;2.30;;;;;;;;;;6337067;22;20167;-91
2023/05/09 18:03:26;;;;;;;6.88;2.60;;;;;;;;;;6358079;22;20164;-91
2023/05/09 18:06:32;;;;;;;4.03;2.45;;;;;;;;;;6338404;22;20238;-90
2023/05/09 18:09:39;;;;;;;5.03;2.35;;;;;;;;;;6338913;22;20598;-91
2023/05/09 18:12:51;;;;;;;6.40;2.80;;;;;;;;;;6338292;22;20188;-91
2023/05/09 18:15:58;;;;;;;5.28;2.40;;;;;;;;;;6339662;22;20160;-93
2023/05/09 18:19:04;;;;;;;5.30;2.50;;;;;;;;;;6338965;22;20179;-92
2023/05/09 18:22:10;;;;;;;26.45;11.52;;;;;;;;;;6337713;22;20165;-89
2023/05/09 18:25:16;;;;;;;12.23;5.97;;;;;;;;;;6338369;22;20164;-92
2023/05/09 18:28:24;;;;;;;6.97;3.20;;;;;;;;;;6342666;22;20169;-91
2023/05/09 18:31:32;;;;;;;7.45;2.95;;;;;;;;;;6341019;22;20213;-91
2023/05/09 18:34:38;;;;;;;10.07;2.97;;;;;;;;;;6341987;22;20165;-90
2023/05/09 18:37:44;;;;;;;4.45;2.53;;;;;;;;;;6338364;22;20229;-90
2023/05/09 18:40:50;;;;;;;19.25;2.83;;;;;;;;;;6339206;22;20218;-89
2023/05/09 18:44:22;;;;;;;6.05;2.63;;;;;;;;;;6336129;22;20219;-92
2023/05/09 18:48:04;;;;;;;5.35;2.60;;;;;;;;;;6354250;22;20196;-91
2023/05/09 18:51:13;;;;;;;4.15;2.40;;;;;;;;;;6337638;22;20189;-91
2023/05/09 18:54:20;;;;;;;7.88;2.42;;;;;;;;;;6337511;22;20254;-92
2023/05/09 18:57:25;;;;;;;3.80;2.28;;;;;;;;;;6338765;22;20646;-91
2023/05/09 19:00:32;;;;;;;4.70;2.50;;;;;;;;;;6336626;22;20219;-91
2023/05/09 19:03:42;;;;;;;4.60;2.00;;;;;;;;;;6338538;22;20230;-93
2023/05/09 19:06:49;;;;;;;5.85;2.53;;;;;;;;;;6353266;22;20639;-90
2023/05/09 19:10:03;;;;;;;3.33;2.22;;;;;;;;;;6340016;22;20148;-92
2023/05/09 19:13:12;;;;;;;7.95;2.70;;;;;;;;;;6338276;22;20172;-92
2023/05/09 19:16:54;;;;;;;6.03;2.65;;;;;;;;;;6334502;22;20190;-92
2023/05/09 19:20:01;;;;;;;5.05;2.45;;;;;;;;;;6336996;22;20164;-90
2023/05/09 19:23:09;;;;;;;6.78;2.40;;;;;;;;;;6336385;22;20250;-91
2023/05/09 19:26:15;;;;;;;4.22;2.30;;;;;;;;;;6336540;22;20168;-91
2023/05/09 19:29:21;;;;;;;5.65;2.20;;;;;;;;;;6337429;22;20180;-93
2023/05/09 19:32:29;;;;;;;6.03;2.38;;;;;;;;;;6338575;22;20212;-90